This is the latest recevied weather packets stored in our database for station/object SQ3VAS-10. If no packets are shown the sender has not sent any weather packets the latest 10 day(s).
| Time | Temp. | Humidity | Pressure | Rain* | Wind** | Luminosity | Snow |
|---|---|---|---|---|---|---|---|
| 1777978163 | 15.56° C | 87% | 1011 hPa | - | - | - | - |
| 1777977586 | 16.11° C | 88% | 1010.9 hPa | - | - | - | - |
| 1777977013 | 15.56° C | 89% | 1011.3 hPa | - | - | - | - |
| 1777976441 | 15.56° C | 89% | 1011.1 hPa | - | - | - | - |
| 1777975868 | 14.44° C | 87% | 1011.4 hPa | - | - | - | - |
| 1777975297 | 15.56° C | 89% | 1011.3 hPa | - | - | - | - |
| 1777974723 | 15.56° C | 91% | 1011.1 hPa | - | - | - | - |
| 1777974149 | 13.33° C | 92% | 1011.6 hPa | - | - | - | - |
| 1777973577 | 13.33° C | 93% | 1011.9 hPa | - | - | - | - |
| 1777972433 | 13.33° C | 90% | 1011.6 hPa | - | - | - | - |
| 1777971860 | 13.33° C | 91% | 1011.3 hPa | - | - | - | - |
| 1777971289 | 13.33° C | 92% | 1011.5 hPa | - | - | - | - |
| 1777970718 | 13.33° C | 90% | 1011.4 hPa | - | - | - | - |
| 1777970143 | 13.33° C | 90% | 1011.4 hPa | - | - | - | - |
| 1777969570 | 13.33° C | 90% | 1011.5 hPa | - | - | - | - |
| 1777968994 | 13.33° C | 86% | 1011.2 hPa | - | - | - | - |
| 1777968422 | 13.89° C | 83% | 1011.1 hPa | - | - | - | - |
| 1777967851 | 13.89° C | 83% | 1011.2 hPa | - | - | - | - |
| 1777967279 | 15° C | 75% | 1011.2 hPa | - | - | - | - |
| 1777966707 | 15° C | 73% | 1011.1 hPa | - | - | - | - |
| 1777966137 | 15° C | 74% | 1011.2 hPa | - | - | - | - |
| 1777965566 | 16.67° C | 67% | 1011.2 hPa | - | - | - | - |
| 1777964995 | 18.33° C | 57% | 1010.7 hPa | - | - | - | - |
| 1777964422 | 18.33° C | 57% | 1010.8 hPa | - | - | - | - |
| 1777963850 | 18.89° C | 57% | 1010.7 hPa | - | - | - | - |
* Rain since midnight (hover to see other rain measurements)
** Current wind speed in m/s (hover to see current wind gust speed)